Time;durP1;ratioP1;P1;durP2;ratioP2;P2;SDS_P1;SDS_P2;PMS_P1;PMS_P2;Temp;Humidity;BMP_temperature;BMP_pressure;BME280_temperature;BME280_humidity;BME280_pressure;Samples;Min_cycle;Max_cycle;Signal;HPM_P1;HPM_P2
2022/12/26 00:01:16;;;;;;;;;;;;;;;18.10;48.10;101859.19;5096291;28;1027;-55
2022/12/26 00:03:41;;;;;;;;;;;;;;;17.20;48.86;101862.06;5096578;28;1145;-54
2022/12/26 00:06:13;;;;;;;;;;;;;;;17.08;48.85;101873.16;5095882;28;1967;-55
2022/12/26 00:08:38;;;;;;;;;;;;;;;17.55;48.72;101868.34;5090834;28;906;-55
2022/12/26 00:11:04;;;;;;;;;;;;;;;17.78;48.70;101870.88;5096182;28;1137;-55
2022/12/26 00:13:29;;;;;;;;;;;;;;;19.37;46.13;101879.09;5096360;28;1150;-55
2022/12/26 00:15:55;;;;;;;;;;;;;;;17.83;48.37;101878.34;5096018;28;1062;-54
2022/12/26 00:18:20;;;;;;;;;;;;;;;17.38;47.98;101873.88;5096588;28;1166;-55
2022/12/26 00:20:46;;;;;;;;;;;;;;;17.67;48.53;101871.81;5095584;28;1078;-53
2022/12/26 00:23:11;;;;;;;;;;;;;;;17.68;48.54;101884.47;5095588;28;1191;-53
2022/12/26 00:25:36;;;;;;;;;;;;;;;17.22;48.16;101889.28;5095915;28;1901;-51
2022/12/26 00:28:02;;;;;;;;;;;;;;;18.44;47.92;101883.78;5096246;28;1030;-52
2022/12/26 00:30:27;;;;;;;;;;;;;;;17.47;48.58;101891.59;5093671;28;1091;-51
2022/12/26 00:32:53;;;;;;;;;;;;;;;17.05;48.21;101884.63;5082752;28;1344;-48
2022/12/26 00:35:19;;;;;;;;;;;;;;;18.22;47.89;101885.75;5095754;28;1062;-55
2022/12/26 00:37:44;;;;;;;;;;;;;;;17.22;48.64;101892.03;5096137;28;1249;-55
2022/12/26 00:40:10;;;;;;;;;;;;;;;19.08;46.53;101901.50;5095573;28;1205;-55
2022/12/26 00:42:35;;;;;;;;;;;;;;;18.26;47.94;101909.75;5095983;28;1118;-54
2022/12/26 00:45:01;;;;;;;;;;;;;;;17.39;48.66;101903.88;5094939;28;883;-55
2022/12/26 00:47:26;;;;;;;;;;;;;;;17.23;47.55;101902.78;5082566;28;1959;-55
2022/12/26 00:49:51;;;;;;;;;;;;;;;18.34;47.70;101913.97;5095554;28;1082;-54
2022/12/26 00:52:17;;;;;;;;;;;;;;;17.45;48.53;101907.53;5095724;28;1193;-55
2022/12/26 00:54:42;;;;;;;;;;;;;;;17.15;48.26;101908.69;5095656;28;1026;-55
2022/12/26 00:57:08;;;;;;;;;;;;;;;18.03;48.28;101902.56;5095522;28;1030;-52
2022/12/26 00:59:33;;;;;;;;;;;;;;;17.28;48.46;101904.81;5095477;28;1034;-51
2022/12/26 01:01:59;;;;;;;;;;;;;;;18.67;47.43;101906.59;5095846;28;1078;-53
2022/12/26 01:04:24;;;;;;;;;;;;;;;17.94;48.28;101901.38;5095409;28;1108;-52
2022/12/26 01:06:49;;;;;;;;;;;;;;;17.32;48.03;101908.72;5095645;28;1934;-52
2022/12/26 01:09:15;;;;;;;;;;;;;;;18.37;47.64;101899.69;5095769;28;899;-52
2022/12/26 01:11:40;;;;;;;;;;;;;;;17.42;48.45;101906.13;5095215;28;1134;-53
2022/12/26 01:14:07;;;;;;;;;;;;;;;17.12;47.54;101891.88;5095392;28;887;-52
2022/12/26 01:16:32;;;;;;;;;;;;;;;18.02;48.23;101895.44;5095872;28;1075;-53
2022/12/26 01:18:59;;;;;;;;;;;;;;;17.21;48.32;101906.91;5098461;28;1113;-50
2022/12/26 01:21:25;;;;;;;;;;;;;;;16.99;47.39;101904.06;5098506;28;1130;-52
2022/12/26 01:23:50;;;;;;;;;;;;;;;17.97;48.30;101917.38;5099395;28;1030;-55
2022/12/26 01:26:16;;;;;;;;;;;;;;;17.20;48.53;101921.72;5099494;28;1909;-56
2022/12/26 01:28:41;;;;;;;;;;;;;;;17.87;48.51;101925.47;5097999;28;1386;-53
2022/12/26 01:31:06;;;;;;;;;;;;;;;17.65;48.63;101918.00;5098791;28;1113;-53
2022/12/26 01:33:32;;;;;;;;;;;;;;;17.95;48.64;101914.88;5098880;28;936;-54
2022/12/26 01:35:57;;;;;;;;;;;;;;;19.16;46.12;101908.44;5099334;28;1142;-54
2022/12/26 01:38:23;;;;;;;;;;;;;;;17.73;48.15;101919.50;5098703;28;1050;-55
2022/12/26 01:41:15;;;;;;;;;;;;;;;17.35;47.67;101913.72;5098452;28;1138;-54
2022/12/26 01:43:46;;;;;;;;;;;;;;;17.98;48.37;101915.44;5098409;28;1432;-55
2022/12/26 01:46:11;;;;;;;;;;;;;;;17.23;48.26;101904.72;5098517;28;1966;-55
2022/12/26 01:48:37;;;;;;;;;;;;;;;18.49;47.70;101906.97;5099017;28;1162;-55
2022/12/26 01:51:02;;;;;;;;;;;;;;;17.70;48.50;101903.50;5097331;28;1059;-55
2022/12/26 01:53:29;;;;;;;;;;;;;;;17.21;48.13;101901.41;5097698;28;1137;-54
2022/12/26 01:56:03;;;;;;;;;;;;;;;18.13;48.25;101910.13;5098878;28;1046;-54
2022/12/26 01:58:35;;;;;;;;;;;;;;;17.43;48.34;101921.53;5095239;28;1234;-56
2022/12/26 02:01:00;;;;;;;;;;;;;;;17.12;47.56;101919.38;5098631;28;1542;-56
2022/12/26 02:06:10;;;;;;;;;;;;;;;17.04;48.33;101926.09;5097882;28;1901;-56
2022/12/26 02:08:35;;;;;;;;;;;;;;;17.39;48.69;101925.03;5097248;28;1142;-54
2022/12/26 02:11:20;;;;;;;;;;;;;;;17.90;48.31;101933.19;5097959;28;1157;-54
2022/12/26 02:13:46;;;;;;;;;;;;;;;17.21;48.55;101928.88;5096655;28;1032;-53
2022/12/26 02:16:12;;;;;;;;;;;;;;;19.02;46.40;101946.66;5097963;28;1046;-55
2022/12/26 02:18:37;;;;;;;;;;;;;;;17.55;48.39;101940.69;5098521;28;1026;-54
2022/12/26 02:21:21;;;;;;;;;;;;;;;17.23;47.83;101943.19;5098066;28;1078;-55
2022/12/26 02:23:59;;;;;;;;;;;;;;;16.98;47.58;101944.41;5097737;28;1062;-54
2022/12/26 02:26:30;;;;;;;;;;;;;;;18.40;47.55;101942.41;5098148;28;1902;-54
2022/12/26 02:28:55;;;;;;;;;;;;;;;17.27;48.64;101938.88;5096454;28;1175;-54
2022/12/26 02:31:23;;;;;;;;;;;;;;;17.06;47.53;101933.03;5097565;28;1066;-53
2022/12/26 02:34:04;;;;;;;;;;;;;;;18.26;47.94;101939.22;5097384;28;1268;-52
2022/12/26 02:36:36;;;;;;;;;;;;;;;17.13;48.94;101943.03;5097681;28;1022;-54
2022/12/26 02:39:07;;;;;;;;;;;;;;;19.11;46.41;101933.22;5097824;28;1209;-54
2022/12/26 02:41:56;;;;;;;;;;;;;;;18.15;47.97;101926.41;5098042;28;1121;-53
2022/12/26 02:47:21;;;;;;;;;;;;;;;18.21;48.02;101925.38;5096844;28;1979;-52
2022/12/26 03:15:14;;;;;;;;;;;;;;;18.36;47.74;101933.00;5095764;28;987;-53
2022/12/26 03:17:40;;;;;;;;;;;;;;;17.57;48.37;101932.16;5096436;28;1225;-53
2022/12/26 03:20:24;;;;;;;;;;;;;;;17.12;47.74;101935.88;5096649;28;1102;-53
2022/12/26 03:22:51;;;;;;;;;;;;;;;17.66;48.74;101930.66;5096431;28;887;-53
2022/12/26 03:28:02;;;;;;;;;;;;;;;18.25;47.91;101926.53;5083337;28;1004;-56
2022/12/26 03:35:56;;;;;;;;;;;;;;;17.63;48.24;101936.69;5096545;28;1081;-54
2022/12/26 03:38:23;;;;;;;;;;;;;;;17.13;49.03;101929.28;5095394;28;1051;-54
2022/12/26 04:21:05;;;;;;;;;;;;;;;17.23;47.70;101945.94;5085289;28;1036;-59
2022/12/26 04:45:28;;;;;;;;;;;;;;;17.57;48.23;101938.53;5094346;28;1910;-60
2022/12/26 04:50:49;;;;;;;;;;;;;;;17.81;48.32;101967.72;5094465;28;1084;-54
2022/12/26 04:53:14;;;;;;;;;;;;;;;17.20;48.02;101968.44;5089633;28;1010;-56
2022/12/26 04:55:40;;;;;;;;;;;;;;;18.85;46.89;101978.97;5096206;28;962;-56
2022/12/26 04:58:05;;;;;;;;;;;;;;;17.54;48.51;101982.19;5099481;28;1229;-56
2022/12/26 05:00:31;;;;;;;;;;;;;;;17.08;47.82;101985.84;5099042;28;1101;-59
2022/12/26 05:11:09;;;;;;;;;;;;;;;17.58;48.36;102014.44;5097912;28;1024;-56
2022/12/26 05:13:34;;;;;;;;;;;;;;;17.07;47.93;102005.31;5098818;28;1433;-55
2022/12/26 05:29:39;;;;;;;;;;;;;;;17.94;47.85;102026.03;5085723;28;1020;-56
2022/12/26 05:32:05;;;;;;;;;;;;;;;17.13;48.40;102033.72;5098744;28;1075;-56
2022/12/26 05:34:30;;;;;;;;;;;;;;;17.48;48.33;102029.94;5092249;28;2794;-56
2022/12/26 05:36:57;;;;;;;;;;;;;;;17.83;47.83;102046.19;5098861;28;1030;-57
2022/12/26 05:39:22;;;;;;;;;;;;;;;17.13;48.01;102041.97;5098415;28;1174;-56
2022/12/26 05:41:48;;;;;;;;;;;;;;;17.80;48.17;102043.94;5098901;28;1221;-57
2022/12/26 05:44:13;;;;;;;;;;;;;;;17.85;47.76;102043.19;5098574;28;1026;-56
2022/12/26 05:46:39;;;;;;;;;;;;;;;17.14;47.90;102038.13;5098297;28;1968;-57
2022/12/26 05:49:04;;;;;;;;;;;;;;;17.73;48.34;102037.78;5098070;28;1065;-57
2022/12/26 05:51:31;;;;;;;;;;;;;;;17.44;48.52;102038.66;5097910;28;1030;-56
2022/12/26 05:53:57;;;;;;;;;;;;;;;17.99;48.20;102044.53;5098943;28;1034;-56
2022/12/26 05:56:22;;;;;;;;;;;;;;;19.07;45.72;102043.19;5097969;28;1014;-57
2022/12/26 05:58:52;;;;;;;;;;;;;;;17.57;48.57;102039.44;5098328;28;969;-58
2022/12/26 06:01:18;;;;;;;;;;;;;;;17.51;48.69;102044.00;5097931;28;1010;-59
2022/12/26 06:03:47;;;;;;;;;;;;;;;17.65;48.37;102032.69;5094896;28;1803;-56
2022/12/26 06:06:13;;;;;;;;;;;;;;;17.21;47.82;102033.34;5097379;28;1905;-59
2022/12/26 06:08:39;;;;;;;;;;;;;;;18.50;47.31;102038.91;5098007;28;1042;-57
2022/12/26 06:11:05;;;;;;;;;;;;;;;17.43;48.46;102031.53;5097882;28;1115;-57
2022/12/26 06:13:31;;;;;;;;;;;;;;;17.06;47.41;102037.44;5098086;28;1019;-58
2022/12/26 06:15:57;;;;;;;;;;;;;;;18.47;47.14;102023.72;5097654;28;1106;-58
2022/12/26 06:18:23;;;;;;;;;;;;;;;17.31;48.32;102022.50;5098336;28;1158;-55
2022/12/26 06:20:49;;;;;;;;;;;;;;;17.67;48.86;102028.63;5097606;28;1070;-58
2022/12/26 06:23:14;;;;;;;;;;;;;;;17.94;48.12;102033.47;5098148;28;851;-58
2022/12/26 06:25:40;;;;;;;;;;;;;;;18.34;47.15;102026.88;5097515;28;1917;-59
2022/12/26 06:28:05;;;;;;;;;;;;;;;17.84;48.25;102030.50;5097926;28;1034;-55
2022/12/26 06:30:31;;;;;;;;;;;;;;;17.37;49.21;102031.69;5097098;28;1038;-57
2022/12/26 06:32:56;;;;;;;;;;;;;;;17.08;50.15;102037.19;5097682;28;1878;-56
2022/12/26 06:35:22;;;;;;;;;;;;;;;16.83;50.59;102032.88;5090914;28;1173;-55
2022/12/26 06:37:47;;;;;;;;;;;;;;;16.65;50.68;102036.63;5097750;28;1077;-56
2022/12/26 06:40:12;;;;;;;;;;;;;;;16.48;51.29;102035.69;5097423;28;1082;-57
2022/12/26 06:42:38;;;;;;;;;;;;;;;16.32;51.54;102038.13;5097527;28;1047;-56
2022/12/26 06:45:03;;;;;;;;;;;;;;;16.14;51.85;102036.34;5097493;28;1030;-57
2022/12/26 06:47:29;;;;;;;;;;;;;;;16.04;51.65;102036.94;5096964;28;1962;-56
2022/12/26 06:49:54;;;;;;;;;;;;;;;15.91;51.76;102037.19;5097222;28;1083;-57
2022/12/26 06:52:20;;;;;;;;;;;;;;;15.84;51.93;102041.97;5096755;28;1023;-57
2022/12/26 06:54:45;;;;;;;;;;;;;;;15.69;52.35;102050.63;5096471;28;1054;-56
2022/12/26 06:57:11;;;;;;;;;;;;;;;15.62;52.36;102053.47;5097049;28;1029;-57
2022/12/26 06:59:36;;;;;;;;;;;;;;;15.52;52.50;102058.69;5097121;28;1046;-57
2022/12/26 07:02:01;;;;;;;;;;;;;;;15.39;52.76;102062.50;5097176;28;1050;-56
2022/12/26 07:04:27;;;;;;;;;;;;;;;15.32;52.91;102068.06;5084274;28;1791;-56
2022/12/26 07:06:52;;;;;;;;;;;;;;;15.99;51.63;102058.78;5096434;28;1906;-56
2022/12/26 07:09:18;;;;;;;;;;;;;;;17.35;48.90;102055.81;5096670;28;1008;-57
2022/12/26 07:11:44;;;;;;;;;;;;;;;16.38;51.20;102070.13;5096796;28;1022;-59
2022/12/26 07:14:10;;;;;;;;;;;;;;;15.93;52.07;102067.13;5097130;28;1138;-57
2022/12/26 07:16:38;;;;;;;;;;;;;;;15.74;52.54;102083.66;5096201;28;1109;-54
2022/12/26 07:19:04;;;;;;;;;;;;;;;15.55;52.88;102071.94;5096772;28;1070;-56
2022/12/26 07:21:29;;;;;;;;;;;;;;;15.43;53.14;102065.59;5096923;28;1114;-57
2022/12/26 07:23:55;;;;;;;;;;;;;;;16.81;49.99;102067.16;5096280;28;1100;-57
2022/12/26 07:26:20;;;;;;;;;;;;;;;17.00;49.50;102059.56;5096365;28;1901;-56
2022/12/26 07:28:46;;;;;;;;;;;;;;;16.21;51.30;102059.00;5096789;28;1122;-56
2022/12/26 07:31:17;;;;;;;;;;;;;;;15.89;52.22;102053.03;5096589;28;1153;-56
2022/12/26 07:33:45;;;;;;;;;;;;;;;15.66;52.71;102062.91;5096211;28;1863;-56
2022/12/26 07:36:11;;;;;;;;;;;;;;;15.48;52.91;102071.22;5096649;28;868;-56
2022/12/26 07:38:36;;;;;;;;;;;;;;;16.42;51.08;102068.56;5096356;28;1153;-55
2022/12/26 07:41:56;;;;;;;;;;;;;;;17.33;48.46;102069.81;5095960;28;1088;-56
2022/12/26 07:43:50;;;;;;;;;;;;;;;16.16;51.33;102067.16;5095783;28;1341;-56
2022/12/26 07:46:15;;;;;;;;;;;;;;;15.83;52.00;102063.06;5096244;28;2008;-57
2022/12/26 07:48:40;;;;;;;;;;;;;;;15.66;52.45;102071.13;5096091;28;962;-55
2022/12/26 07:51:06;;;;;;;;;;;;;;;15.50;52.74;102069.91;5096279;28;1026;-53
2022/12/26 07:53:31;;;;;;;;;;;;;;;15.42;52.97;102069.38;5095819;28;1007;-53
2022/12/26 07:56:00;;;;;;;;;;;;;;;16.39;50.71;102066.28;5096613;28;983;-53
2022/12/26 07:58:25;;;;;;;;;;;;;;;17.08;49.01;102064.69;5096199;28;1003;-53
2022/12/26 08:00:51;;;;;;;;;;;;;;;16.10;51.31;102067.25;5096419;28;883;-53
2022/12/26 08:03:16;;;;;;;;;;;;;;;15.77;52.36;102074.09;5092987;28;1784;-53
2022/12/26 08:05:48;;;;;;;;;;;;;;;15.60;52.54;102071.22;5086296;28;1906;-53
2022/12/26 08:08:14;;;;;;;;;;;;;;;16.31;50.95;102074.88;5095945;28;1119;-54
2022/12/26 08:10:39;;;;;;;;;;;;;;;17.27;48.29;102068.06;5095822;28;1063;-53
2022/12/26 08:13:05;;;;;;;;;;;;;;;16.24;50.92;102066.78;5095485;28;875;-53
2022/12/26 08:15:30;;;;;;;;;;;;;;;15.86;52.16;102065.31;5095612;28;1062;-54
2022/12/26 08:17:56;;;;;;;;;;;;;;;15.69;52.18;102073.38;5095420;28;1015;-54
2022/12/26 08:20:21;;;;;;;;;;;;;;;16.28;51.07;102063.56;5095881;28;1134;-53
2022/12/26 08:22:46;;;;;;;;;;;;;;;17.35;48.10;102072.31;5095452;28;1133;-53
2022/12/26 08:25:12;;;;;;;;;;;;;;;16.31;50.62;102079.53;5095998;28;895;-52
2022/12/26 08:27:37;;;;;;;;;;;;;;;15.91;51.76;102068.19;5096030;28;1913;-53
2022/12/26 08:30:03;;;;;;;;;;;;;;;15.72;52.04;102067.44;5099906;28;995;-51
2022/12/26 08:32:29;;;;;;;;;;;;;;;15.56;52.43;102063.47;5099929;28;1257;-53
2022/12/26 08:34:54;;;;;;;;;;;;;;;16.58;50.20;102058.72;5095499;28;2616;-52
2022/12/26 08:37:22;;;;;;;;;;;;;;;17.13;48.46;102047.47;5099571;28;1041;-54
2022/12/26 08:39:48;;;;;;;;;;;;;;;16.20;50.88;102045.53;5099442;28;1140;-53
2022/12/26 08:42:14;;;;;;;;;;;;;;;15.84;51.91;102034.56;5099395;28;1107;-55
2022/12/26 08:44:39;;;;;;;;;;;;;;;15.68;52.36;102043.47;5099536;28;1081;-55
2022/12/26 08:47:04;;;;;;;;;;;;;;;15.52;52.84;102039.50;5099380;28;1909;-55
2022/12/26 08:49:30;;;;;;;;;;;;;;;17.10;48.68;102030.38;5098697;28;920;-55
2022/12/26 08:51:55;;;;;;;;;;;;;;;16.67;49.73;102034.47;5099674;28;1181;-55
2022/12/26 08:54:22;;;;;;;;;;;;;;;16.04;51.23;102036.94;5099905;28;1010;-55
2022/12/26 08:56:47;;;;;;;;;;;;;;;15.79;52.11;102041.81;5099407;28;1137;-54
2022/12/26 08:59:13;;;;;;;;;;;;;;;15.58;52.42;102038.56;5099587;28;1038;-54
2022/12/26 09:01:39;;;;;;;;;;;;;;;16.93;49.44;102043.25;5092705;28;1036;-55
2022/12/26 09:04:06;;;;;;;;;;;;;;;16.58;49.77;102030.44;5096616;28;2537;-55
2022/12/26 09:06:32;;;;;;;;;;;;;;;15.98;51.55;102026.94;5098950;28;1989;-55
2022/12/26 09:08:57;;;;;;;;;;;;;;;15.76;51.93;102028.56;5099310;28;1204;-54
2022/12/26 09:11:26;;;;;;;;;;;;;;;15.59;52.30;102023.78;5098576;28;1034;-54
2022/12/26 09:13:52;;;;;;;;;;;;;;;17.13;48.73;102014.50;5087062;28;1134;-54
2022/12/26 09:16:18;;;;;;;;;;;;;;;16.63;49.68;102005.00;5098532;28;990;-53
2022/12/26 09:18:44;;;;;;;;;;;;;;;16.07;51.36;102008.19;5098911;28;1025;-53
2022/12/26 09:21:10;;;;;;;;;;;;;;;15.82;52.03;102003.81;5099345;28;1154;-54
2022/12/26 09:23:36;;;;;;;;;;;;;;;15.64;52.25;101993.75;5098747;28;1034;-51
2022/12/26 09:26:02;;;;;;;;;;;;;;;15.45;52.65;101989.44;5098908;28;1897;-53
2022/12/26 09:28:28;;;;;;;;;;;;;;;15.82;52.13;101992.00;5098852;28;1157;-53
2022/12/26 09:30:53;;;;;;;;;;;;;;;17.26;48.45;101986.69;5099560;28;1392;-53
2022/12/26 09:33:19;;;;;;;;;;;;;;;16.37;50.49;101988.00;5095471;28;2422;-54
2022/12/26 09:35:44;;;;;;;;;;;;;;;15.88;51.61;101988.31;5095836;28;1057;-53
2022/12/26 09:38:10;;;;;;;;;;;;;;;15.65;52.45;101978.97;5098912;28;1014;-53
2022/12/26 09:40:42;;;;;;;;;;;;;;;15.50;52.69;101981.34;5097666;28;1193;-53
2022/12/26 09:43:16;;;;;;;;;;;;;;;15.99;51.55;101979.25;5097739;28;1063;-52
2022/12/26 09:45:44;;;;;;;;;;;;;;;17.38;47.86;101968.19;5096935;28;1905;-53
2022/12/26 09:48:18;;;;;;;;;;;;;;;16.30;50.41;101968.91;5098605;28;1026;-53
2022/12/26 09:50:43;;;;;;;;;;;;;;;15.86;51.91;101972.06;5085140;28;991;-53
2022/12/26 09:53:13;;;;;;;;;;;;;;;15.68;52.24;101970.28;5097595;28;1054;-53
2022/12/26 09:55:41;;;;;;;;;;;;;;;16.16;51.24;101967.50;5097338;28;1084;-54
2022/12/26 09:58:36;;;;;;;;;;;;;;;17.06;48.49;101966.00;5097169;28;1222;-54
2022/12/26 10:01:04;;;;;;;;;;;;;;;16.06;51.23;101970.84;5077630;28;1253;-54
2022/12/26 10:03:31;;;;;;;;;;;;;;;15.78;52.07;101964.19;5107186;28;2321;-54
2022/12/26 10:06:08;;;;;;;;;;;;;;;15.59;52.57;101963.47;5091191;28;1957;-54
2022/12/26 10:08:43;;;;;;;;;;;;;;;15.44;52.74;101966.66;5096689;28;1035;-50
2022/12/26 10:11:11;;;;;;;;;;;;;;;16.77;49.64;101959.66;5097872;28;1121;-53
2022/12/26 10:13:38;;;;;;;;;;;;;;;16.74;49.31;101961.00;5096228;28;889;-53
2022/12/26 10:16:07;;;;;;;;;;;;;;;16.02;51.25;101965.03;5098032;28;1022;-53
2022/12/26 10:18:45;;;;;;;;;;;;;;;15.77;52.04;101954.28;5096551;28;1536;-53
2022/12/26 10:21:26;;;;;;;;;;;;;;;15.57;52.55;101960.13;5096572;28;1062;-53
2022/12/26 10:23:56;;;;;;;;;;;;;;;16.56;50.06;101955.69;5097949;28;1027;-52
2022/12/26 10:26:28;;;;;;;;;;;;;;;16.92;48.78;101938.00;5096350;28;1987;-52
2022/12/26 10:29:10;;;;;;;;;;;;;;;16.07;51.35;101934.13;5097779;28;1130;-51
2022/12/26 10:31:37;;;;;;;;;;;;;;;15.77;51.91;101931.50;5097678;28;1043;-53
2022/12/26 10:34:21;;;;;;;;;;;;;;;15.57;52.28;101922.59;5089416;28;1903;-53
2022/12/26 10:36:51;;;;;;;;;;;;;;;15.79;52.00;101926.63;5097850;28;986;-53
2022/12/26 10:39:19;;;;;;;;;;;;;;;17.25;48.34;101914.38;5097480;28;1118;-53
2022/12/26 10:41:45;;;;;;;;;;;;;;;16.27;50.62;101921.91;5096199;28;1457;-53
2022/12/26 10:44:11;;;;;;;;;;;;;;;15.85;51.85;101917.44;5096137;28;1067;-53
2022/12/26 10:46:39;;;;;;;;;;;;;;;15.66;52.37;101924.97;5095694;28;1980;-51
2022/12/26 10:49:07;;;;;;;;;;;;;;;16.54;50.03;101913.94;5094030;28;1026;-54
2022/12/26 10:51:32;;;;;;;;;;;;;;;17.40;47.58;101922.03;5095787;28;1038;-53
2022/12/26 10:53:58;;;;;;;;;;;;;;;16.38;50.46;101921.88;5096184;28;1043;-52
2022/12/26 10:56:23;;;;;;;;;;;;;;;15.99;51.39;101918.03;5097384;28;1166;-52
2022/12/26 10:58:57;;;;;;;;;;;;;;;15.78;52.01;101920.31;5096048;28;1157;-54
2022/12/26 11:01:33;;;;;;;;;;;;;;;15.60;52.47;101917.69;5096649;28;1007;-54
2022/12/26 11:04:02;;;;;;;;;;;;;;;16.04;51.60;101910.75;5096477;28;2514;-54
2022/12/26 11:06:30;;;;;;;;;;;;;;;17.40;47.73;101904.69;5097284;28;1974;-53
2022/12/26 11:08:55;;;;;;;;;;;;;;;16.35;50.59;101897.63;5097023;28;1189;-53
2022/12/26 11:11:46;;;;;;;;;;;;;;;15.90;51.70;101892.88;5096605;28;1051;-54
2022/12/26 11:14:27;;;;;;;;;;;;;;;15.68;52.21;101890.75;5097161;28;1011;-54
2022/12/26 11:16:52;;;;;;;;;;;;;;;16.18;51.09;101883.03;5083032;28;1013;-54
2022/12/26 11:19:27;;;;;;;;;;;;;;;17.17;48.35;101883.75;5096573;28;1074;-55
2022/12/26 11:21:52;;;;;;;;;;;;;;;16.15;51.02;101878.88;5096821;28;1122;-55
2022/12/26 11:24:21;;;;;;;;;;;;;;;15.82;51.60;101869.44;5096785;28;1035;-54
2022/12/26 11:26:46;;;;;;;;;;;;;;;15.63;52.13;101867.88;5086507;28;1988;-53
2022/12/26 11:29:19;;;;;;;;;;;;;;;16.96;49.23;101872.41;5095431;28;1149;-54
2022/12/26 11:32:00;;;;;;;;;;;;;;;16.65;49.60;101871.84;5096681;28;1382;-51
2022/12/26 11:34:26;;;;;;;;;;;;;;;16.01;51.21;101866.50;5089683;28;2437;-54
2022/12/26 11:36:51;;;;;;;;;;;;;;;15.78;51.78;101859.97;5092375;28;1030;-54
2022/12/26 11:39:21;;;;;;;;;;;;;;;15.63;52.04;101855.00;5095641;28;1020;-54
2022/12/26 11:41:48;;;;;;;;;;;;;;;16.48;50.22;101854.50;5096596;28;1252;-51
2022/12/26 11:44:13;;;;;;;;;;;;;;;17.12;48.35;101848.75;5096225;28;1115;-53
2022/12/26 11:46:40;;;;;;;;;;;;;;;16.16;51.00;101846.75;5096400;28;1906;-53
2022/12/26 11:49:05;;;;;;;;;;;;;;;15.83;51.80;101853.78;5091545;28;996;-53
2022/12/26 11:51:36;;;;;;;;;;;;;;;15.66;52.10;101848.19;5091133;28;1106;-53
2022/12/26 11:54:11;;;;;;;;;;;;;;;15.62;52.46;101857.97;5083480;28;1000;-54
2022/12/26 11:56:37;;;;;;;;;;;;;;;17.29;48.20;101859.72;5095895;28;1058;-54
2022/12/26 11:59:12;;;;;;;;;;;;;;;16.67;49.59;101853.19;5096340;28;1034;-55
2022/12/26 12:01:37;;;;;;;;;;;;;;;16.06;50.98;101845.50;5094259;28;1007;-55
2022/12/26 12:04:04;;;;;;;;;;;;;;;15.81;51.60;101854.03;5086613;28;1780;-52
2022/12/26 12:06:36;;;;;;;;;;;;;;;15.65;52.09;101857.50;5092582;28;1959;-54
2022/12/26 12:09:04;;;;;;;;;;;;;;;17.00;49.02;101850.75;5096252;28;1154;-56
2022/12/26 12:11:36;;;;;;;;;;;;;;;16.60;49.72;101844.28;5094285;28;1348;-55
2022/12/26 12:14:07;;;;;;;;;;;;;;;16.07;51.18;101846.31;5096167;28;903;-55
2022/12/26 12:17:02;;;;;;;;;;;;;;;15.78;51.68;101850.91;5095553;28;1007;-56
2022/12/26 12:19:30;;;;;;;;;;;;;;;15.56;52.25;101851.56;5086753;28;1378;-57
2022/12/26 12:22:10;;;;;;;;;;;;;;;16.04;51.31;101841.31;5096507;28;1212;-54
2022/12/26 12:24:36;;;;;;;;;;;;;;;17.14;48.13;101845.75;5094355;28;1135;-53
2022/12/26 12:27:07;;;;;;;;;;;;;;;16.21;50.70;101839.44;5095335;28;1991;-53
2022/12/26 12:29:39;;;;;;;;;;;;;;;15.82;51.83;101841.16;5095579;28;1233;-53
2022/12/26 12:32:16;;;;;;;;;;;;;;;15.63;52.16;101845.94;5095871;28;1233;-52
2022/12/26 12:35:05;;;;;;;;;;;;;;;15.97;51.40;101841.47;5090538;28;2519;-51
2022/12/26 12:37:43;;;;;;;;;;;;;;;17.30;48.02;101839.41;5078669;28;1376;-54
2022/12/26 12:40:19;;;;;;;;;;;;;;;16.22;50.54;101834.81;5095169;28;1325;-54
2022/12/26 12:42:51;;;;;;;;;;;;;;;15.85;51.44;101851.63;5095831;28;1049;-55
2022/12/26 12:45:25;;;;;;;;;;;;;;;15.64;52.17;101851.19;5095273;28;1212;-51
2022/12/26 12:48:08;;;;;;;;;;;;;;;15.65;52.24;101863.78;5094716;28;1985;-56
2022/12/26 12:50:38;;;;;;;;;;;;;;;17.32;47.83;101856.50;5081566;28;889;-52
2022/12/26 12:53:10;;;;;;;;;;;;;;;16.62;49.56;101858.63;5095014;28;984;-53
2022/12/26 12:55:35;;;;;;;;;;;;;;;16.04;50.89;101857.78;5095837;28;995;-55
2022/12/26 12:58:03;;;;;;;;;;;;;;;15.79;51.87;101849.84;5091475;28;1269;-55
2022/12/26 13:00:33;;;;;;;;;;;;;;;15.63;51.93;101846.78;5086113;28;1014;-56
2022/12/26 13:03:00;;;;;;;;;;;;;;;17.14;48.32;101845.75;5093113;28;1859;-60
2022/12/26 13:05:26;;;;;;;;;;;;;;;16.84;48.87;101841.41;5085545;28;1012;-57
2022/12/26 13:07:53;;;;;;;;;;;;;;;16.15;50.73;101842.38;5095271;28;1909;-57
2022/12/26 13:10:23;;;;;;;;;;;;;;;15.82;51.60;101844.75;5093766;28;1559;-54
2022/12/26 13:12:48;;;;;;;;;;;;;;;15.66;52.16;101843.53;5093967;28;1102;-58
2022/12/26 13:15:23;;;;;;;;;;;;;;;16.04;51.25;101839.41;5098522;28;936;-57
2022/12/26 13:17:52;;;;;;;;;;;;;;;17.42;47.67;101848.38;5098396;28;1007;-59
2022/12/26 13:20:22;;;;;;;;;;;;;;;16.37;50.22;101853.50;5098228;28;1155;-58
2022/12/26 13:25:43;;;;;;;;;;;;;;;15.72;52.09;101853.56;5098557;28;1961;-56
2022/12/26 13:28:11;;;;;;;;;;;;;;;15.63;52.34;101846.78;5097761;28;1103;-55
2022/12/26 13:30:36;;;;;;;;;;;;;;;17.23;48.24;101845.06;5097506;28;1098;-56
2022/12/26 13:33:02;;;;;;;;;;;;;;;16.51;50.05;101849.34;5097999;28;2127;-57
2022/12/26 13:35:46;;;;;;;;;;;;;;;16.01;51.12;101850.06;5097586;28;1118;-57
2022/12/26 13:38:11;;;;;;;;;;;;;;;15.74;51.97;101851.38;5098582;28;1058;-57
2022/12/26 13:40:37;;;;;;;;;;;;;;;15.55;52.38;101847.13;5098248;28;1380;-57
2022/12/26 13:45:58;;;;;;;;;;;;;;;16.24;50.60;101847.22;5097356;28;1972;-58
2022/12/26 13:48:28;;;;;;;;;;;;;;;15.84;51.93;101848.06;5099143;28;1122;-55
2022/12/26 13:50:54;;;;;;;;;;;;;;;15.66;52.34;101848.19;5098887;28;887;-54
2022/12/26 13:53:38;;;;;;;;;;;;;;;16.63;49.98;101845.72;5098295;28;1067;-55
2022/12/26 13:56:23;;;;;;;;;;;;;;;16.52;50.18;101839.19;5097500;28;1094;-60
2022/12/26 13:58:51;;;;;;;;;;;;;;;15.93;51.44;101842.19;5098437;28;1058;-58
2022/12/26 14:01:25;;;;;;;;;;;;;;;15.71;52.13;101843.66;5096823;28;1075;-57
2022/12/26 14:04:09;;;;;;;;;;;;;;;15.52;52.44;101847.63;5089992;28;2233;-59
2022/12/26 14:06:41;;;;;;;;;;;;;;;17.03;48.83;101845.59;5086436;28;1955;-56
2022/12/26 14:09:09;;;;;;;;;;;;;;;16.71;49.55;101854.38;5098196;28;1070;-54
2022/12/26 14:11:38;;;;;;;;;;;;;;;16.07;51.47;101847.19;5097738;28;1076;-56
2022/12/26 14:14:18;;;;;;;;;;;;;;;15.81;52.13;101853.19;5097485;28;1125;-59
2022/12/26 14:16:49;;;;;;;;;;;;;;;15.58;52.63;101846.66;5096900;28;1155;-59
2022/12/26 14:19:29;;;;;;;;;;;;;;;16.72;49.74;101847.81;5098317;28;1006;-60
2022/12/26 14:21:59;;;;;;;;;;;;;;;16.84;49.08;101839.47;5096494;28;1118;-56
2022/12/26 14:24:24;;;;;;;;;;;;;;;16.09;51.34;101830.47;5097959;28;1158;-55
2022/12/26 14:26:50;;;;;;;;;;;;;;;15.82;52.05;101839.25;5101454;28;1929;-56
2022/12/26 14:29:18;;;;;;;;;;;;;;;15.60;52.65;101821.72;5100570;28;1081;-57
2022/12/26 14:31:50;;;;;;;;;;;;;;;15.97;51.83;101827.75;5097669;28;1006;-56
2022/12/26 14:34:34;;;;;;;;;;;;;;;17.26;48.19;101824.50;5091740;28;2381;-56
2022/12/26 14:37:04;;;;;;;;;;;;;;;16.18;50.97;101814.44;5097699;28;1177;-56
2022/12/26 14:39:32;;;;;;;;;;;;;;;15.79;52.01;101816.94;5096775;28;1032;-61
2022/12/26 14:44:52;;;;;;;;;;;;;;;17.08;48.94;101820.09;5097172;28;1018;-58
2022/12/26 14:47:35;;;;;;;;;;;;;;;16.21;51.14;101822.16;5096898;28;1880;-59
2022/12/26 14:50:21;;;;;;;;;;;;;;;15.84;52.17;101822.56;5097845;28;1281;-59
2022/12/26 14:52:47;;;;;;;;;;;;;;;15.66;52.33;101816.13;5086365;28;1003;-58
2022/12/26 14:55:42;;;;;;;;;;;;;;;17.04;48.98;101819.78;5097459;28;1126;-58
2022/12/26 14:58:26;;;;;;;;;;;;;;;16.62;49.93;101811.94;5088447;28;1439;-57
2022/12/26 15:00:52;;;;;;;;;;;;;;;16.06;51.49;101814.47;5086077;28;1068;-58
2022/12/26 15:03:22;;;;;;;;;;;;;;;15.79;52.46;101819.66;5096766;28;2272;-56
2022/12/26 15:05:47;;;;;;;;;;;;;;;15.59;52.67;101814.59;5096143;28;1902;-61
2022/12/26 15:08:16;;;;;;;;;;;;;;;15.47;52.88;101811.88;5095726;28;1059;-57
2022/12/26 15:10:49;;;;;;;;;;;;;;;16.46;50.87;101821.81;5096883;28;1050;-53